Time;durP1;ratioP1;P1;durP2;ratioP2;P2;SDS_P1;SDS_P2;PMS_P1;PMS_P2;Temp;Humidity;BMP_temperature;BMP_pressure;BME280_temperature;BME280_humidity;BME280_pressure;Samples;Min_cycle;Max_cycle;Signal;HPM_P1;HPM_P2
2021/06/18 00:01:31;;;;;;;22.45;15.88;;;19.30;61.60;;;;;;5095669;28;20064;-55
2021/06/18 00:03:58;;;;;;;25.40;13.65;;;19.40;62.70;;;;;;5095693;28;20028;-54
2021/06/18 00:06:26;;;;;;;26.08;16.15;;;19.60;60.20;;;;;;5096056;28;20375;-49
2021/06/18 00:08:53;;;;;;;26.60;17.08;;;19.80;61.50;;;;;;5094486;28;20032;-55
2021/06/18 00:11:21;;;;;;;37.22;22.77;;;19.90;60.80;;;;;;5095762;28;20043;-49
2021/06/18 00:13:48;;;;;;;40.75;22.95;;;20.10;60.80;;;;;;5096125;28;20020;-52
2021/06/18 00:16:15;;;;;;;39.67;26.05;;;20.20;60.70;;;;;;5095635;28;20121;-50
2021/06/18 00:18:43;;;;;;;42.65;25.55;;;20.20;60.80;;;;;;5096359;28;20138;-51
2021/06/18 00:21:10;;;;;;;56.70;43.90;;;20.40;60.50;;;;;;5095775;28;20087;-51
2021/06/18 00:23:37;;;;;;;38.78;22.40;;;20.50;59.80;;;;;;5095730;28;20148;-49
2021/06/18 00:26:05;;;;;;;30.73;21.05;;;20.60;58.80;;;;;;5095634;28;20040;-55
2021/06/18 00:28:33;;;;;;;36.55;26.00;;;20.70;58.10;;;;;;5094408;28;20032;-55
2021/06/18 00:31:01;;;;;;;35.28;25.73;;;20.80;58.10;;;;;;5095877;28;20028;-54
2021/06/18 00:33:30;;;;;;;37.30;25.80;;;20.90;58.30;;;;;;5094943;28;20035;-53
2021/06/18 00:35:58;;;;;;;32.13;21.35;;;20.80;58.60;;;;;;5095991;28;20107;-53
2021/06/18 00:38:25;;;;;;;36.58;25.05;;;20.90;58.40;;;;;;5095798;28;20028;-51
2021/06/18 00:40:53;;;;;;;42.75;26.63;;;20.90;58.80;;;;;;5095492;28;20047;-53
2021/06/18 00:43:21;;;;;;;34.92;24.92;;;20.90;58.60;;;;;;5095534;28;20432;-53
2021/06/18 00:45:48;;;;;;;44.08;20.88;;;21.00;58.00;;;;;;5095336;28;20024;-50
2021/06/18 00:48:20;;;;;;;37.17;24.20;;;21.00;56.20;;;;;;5095361;28;20264;-52
2021/06/18 00:50:48;;;;;;;33.13;21.85;;;21.00;58.10;;;;;;5095656;28;20103;-51
2021/06/18 00:53:16;;;;;;;37.65;27.05;;;21.00;57.20;;;;;;5077670;28;20042;-52
2021/06/18 00:55:49;;;;;;;38.15;25.13;;;21.00;58.50;;;;;;5095238;28;20410;-48
2021/06/18 00:58:17;;;;;;;39.00;26.38;;;21.00;56.90;;;;;;5095066;28;20356;-52
2021/06/18 01:00:45;;;;;;;39.13;25.48;;;20.90;58.90;;;;;;5094800;28;20031;-51
2021/06/18 01:03:13;;;;;;;39.25;24.80;;;21.10;58.80;;;;;;5094603;28;20105;-53
2021/06/18 01:05:44;;;;;;;36.20;26.35;;;21.20;58.10;;;;;;5094854;28;20023;-53
2021/06/18 01:08:35;;;;;;;33.35;21.83;;;21.10;58.90;;;;;;5093767;28;20032;-52
2021/06/18 01:11:29;;;;;;;35.75;23.33;;;21.20;55.90;;;;;;5094731;28;20055;-49
2021/06/18 01:14:03;;;;;;;31.15;23.65;;;21.10;58.90;;;;;;5094830;28;20475;-55
2021/06/18 01:16:47;;;;;;;37.88;24.63;;;21.30;57.00;;;;;;5094553;28;20512;-50
2021/06/18 01:19:58;;;;;;;33.67;20.20;;;21.30;58.90;;;;;;5094870;28;20024;-51
2021/06/18 01:22:28;;;;;;;25.63;18.15;;;21.50;58.50;;;;;;5094864;28;20111;-52
2021/06/18 01:25:07;;;;;;;30.80;21.15;;;21.60;55.90;;;;;;5094709;28;20055;-53
2021/06/18 01:27:43;;;;;;;27.20;19.42;;;21.60;57.10;;;;;;5094763;28;20466;-54
2021/06/18 01:30:17;;;;;;;31.63;22.05;;;21.50;56.00;;;;;;5094422;28;20043;-54
2021/06/18 01:33:04;;;;;;;33.65;21.63;;;21.60;58.50;;;;;;5094660;28;20051;-51
2021/06/18 01:36:05;;;;;;;28.13;18.23;;;21.60;57.90;;;;;;5092806;28;20024;-50
2021/06/18 01:38:39;;;;;;;32.03;18.30;;;21.70;56.70;;;;;;5050911;28;20032;-56
2021/06/18 01:41:12;;;;;;;25.80;17.77;;;21.70;56.20;;;;;;5093100;28;20020;-52
2021/06/18 01:43:42;;;;;;;28.15;20.13;;;21.70;56.60;;;;;;5094106;28;20024;-54
2021/06/18 01:46:13;;;;;;;28.08;21.13;;;21.70;58.00;;;;;;5094180;28;20047;-52
2021/06/18 01:48:44;;;;;;;26.10;16.38;;;21.50;58.40;;;;;;5094190;28;20040;-53
2021/06/18 01:51:13;;;;;;;21.15;15.20;;;21.70;57.70;;;;;;5093912;28;20542;-55
2021/06/18 01:53:43;;;;;;;27.17;18.77;;;21.70;57.30;;;;;;5093965;28;20065;-52
2021/06/18 01:56:21;;;;;;;23.48;16.55;;;21.90;58.00;;;;;;5093912;28;20027;-53
2021/06/18 01:58:51;;;;;;;18.88;13.20;;;21.90;56.10;;;;;;5092399;28;20081;-50
2021/06/18 02:01:24;;;;;;;20.15;13.90;;;22.20;56.50;;;;;;5093864;28;20047;-51
2021/06/18 02:03:51;;;;;;;22.42;16.15;;;22.10;55.80;;;;;;5090904;28;20055;-59
2021/06/18 02:06:21;;;;;;;24.00;17.45;;;22.10;57.00;;;;;;5093677;28;20080;-53
2021/06/18 02:08:54;;;;;;;24.75;16.33;;;22.10;56.50;;;;;;5093324;28;20036;-52
2021/06/18 02:11:25;;;;;;;22.20;15.40;;;22.30;55.20;;;;;;5093716;28;20366;-54
2021/06/18 02:13:55;;;;;;;23.03;14.90;;;22.20;56.80;;;;;;5093504;28;20032;-55
2021/06/18 02:16:26;;;;;;;24.25;16.30;;;22.30;56.70;;;;;;5093358;28;20070;-57
2021/06/18 02:18:58;;;;;;;22.73;15.70;;;22.20;57.20;;;;;;5093043;28;20031;-51
2021/06/18 02:21:26;;;;;;;;;;;22.10;57.40;;;;;;5093900;28;20024;-56
2021/06/18 02:23:58;;;;;;;19.75;14.85;;;22.30;56.10;;;;;;5093710;28;19956;-53
2021/06/18 02:26:26;;;;;;;20.95;13.05;;;22.40;55.20;;;;;;5093754;28;20048;-52
2021/06/18 02:28:55;;;;;;;17.33;13.00;;;22.30;54.20;;;;;;5091887;28;20593;-51
2021/06/18 02:31:24;;;;;;;17.13;11.73;;;22.10;55.70;;;;;;5093318;28;20481;-54
2021/06/18 02:33:52;;;;;;;18.60;14.52;;;22.00;54.20;;;;;;5093401;28;20112;-48
2021/06/18 02:36:21;;;;;;;21.77;12.10;;;21.80;56.60;;;;;;5093318;28;20031;-52
2021/06/18 02:38:49;;;;;;;18.63;13.63;;;21.70;56.60;;;;;;5093134;28;20153;-52
2021/06/18 02:41:17;;;;;;;19.10;13.75;;;21.50;57.80;;;;;;5092800;28;20501;-50
2021/06/18 02:43:45;;;;;;;20.52;11.60;;;21.30;58.20;;;;;;5093329;28;20020;-52
2021/06/18 02:46:32;;;;;;;22.30;12.32;;;21.20;59.30;;;;;;5092890;28;20378;-52
2021/06/18 02:49:02;;;;;;;18.38;12.07;;;21.30;59.10;;;;;;5079036;28;20217;-54
2021/06/18 02:51:42;;;;;;;18.25;13.45;;;21.20;57.10;;;;;;5093000;28;20027;-53
2021/06/18 02:54:14;;;;;;;15.50;11.93;;;21.10;59.50;;;;;;5092763;28;20027;-53
2021/06/18 02:57:12;;;;;;;17.65;11.15;;;21.20;60.50;;;;;;5092988;28;20071;-55
2021/06/18 02:59:59;;;;;;;17.00;12.05;;;21.40;60.40;;;;;;5088556;28;20024;-50
2021/06/18 03:02:35;;;;;;;15.23;10.68;;;21.50;58.60;;;;;;5092604;28;20478;-53
2021/06/18 03:05:06;;;;;;;15.30;11.43;;;21.70;58.50;;;;;;5091407;28;20032;-55
2021/06/18 03:07:35;;;;;;;13.73;10.50;;;21.90;58.60;;;;;;5092925;28;20028;-57
2021/06/18 03:10:10;;;;;;;13.75;8.88;;;21.90;56.70;;;;;;5092772;28;20061;-53
2021/06/18 03:12:44;;;;;;;15.55;10.10;;;22.20;57.70;;;;;;5092721;28;20103;-56
2021/06/18 03:15:12;;;;;;;14.05;9.48;;;22.40;55.10;;;;;;5091669;28;20042;-51
2021/06/18 03:17:43;;;;;;;13.18;9.00;;;22.40;56.80;;;;;;5092591;28;20116;-53
2021/06/18 03:20:15;;;;;;;12.80;8.57;;;22.40;54.80;;;;;;5090827;28;20024;-53
2021/06/18 03:22:44;;;;;;;15.00;8.95;;;22.50;54.40;;;;;;5092364;28;20754;-50
2021/06/18 03:25:13;;;;;;;10.50;9.10;;;22.40;55.20;;;;;;5092127;28;20035;-56
2021/06/18 03:27:41;;;;;;;13.48;10.00;;;22.20;56.90;;;;;;5092269;28;20052;-53
2021/06/18 03:30:09;;;;;;;12.35;8.43;;;22.00;57.00;;;;;;5091643;28;20024;-53
2021/06/18 03:32:38;;;;;;;12.32;8.98;;;21.80;55.90;;;;;;5092201;28;20046;-55
2021/06/18 03:35:07;;;;;;;14.18;8.48;;;21.70;58.10;;;;;;5092258;28;20503;-56
2021/06/18 03:37:35;;;;;;;12.50;8.20;;;21.70;58.20;;;;;;5092209;28;20028;-54
2021/06/18 03:40:04;;;;;;;13.18;9.18;;;21.80;58.60;;;;;;5092383;28;20111;-55
2021/06/18 03:42:32;;;;;;;11.82;7.65;;;21.80;57.90;;;;;;5092494;28;20062;-54
2021/06/18 03:45:02;;;;;;;12.02;7.35;;;21.80;56.40;;;;;;5091650;28;20044;-54
2021/06/18 03:47:29;;;;;;;14.60;7.32;;;21.90;56.70;;;;;;5091846;28;20068;-55
2021/06/18 03:49:58;;;;;;;51.20;10.10;;;21.90;58.00;;;;;;5091587;28;20366;-53
2021/06/18 03:52:26;;;;;;;9.25;7.90;;;21.90;56.50;;;;;;5092038;28;20031;-53
2021/06/18 03:54:56;;;;;;;14.18;7.47;;;21.90;56.70;;;;;;5091826;28;20031;-53
2021/06/18 03:57:24;;;;;;;9.73;7.40;;;21.90;58.30;;;;;;5091702;28;20023;-56
2021/06/18 03:59:53;;;;;;;9.55;7.43;;;21.90;56.40;;;;;;5091489;28;20024;-56
2021/06/18 04:02:24;;;;;;;13.20;7.25;;;22.00;58.00;;;;;;5091672;28;20382;-50
2021/06/18 04:04:52;;;;;;;10.38;6.93;;;21.90;56.70;;;;;;5091809;28;20027;-52
2021/06/18 04:07:21;;;;;;;10.32;7.70;;;21.80;56.80;;;;;;5091599;28;20021;-50
2021/06/18 04:09:49;;;;;;;8.60;6.57;;;21.70;57.20;;;;;;5091923;28;20162;-52
2021/06/18 04:12:16;;;;;;;17.05;7.35;;;21.70;56.40;;;;;;5091690;28;20032;-50
2021/06/18 04:14:44;;;;;;;8.98;6.38;;;21.70;58.00;;;;;;5091792;28;20028;-50
2021/06/18 04:17:12;;;;;;;11.00;7.22;;;21.60;58.50;;;;;;5090175;28;20081;-47
2021/06/18 04:19:42;;;;;;;10.00;6.00;;;21.70;57.30;;;;;;5091721;28;20046;-54
2021/06/18 04:22:15;;;;;;;8.40;6.53;;;21.70;57.30;;;;;;5091745;28;20316;-51
2021/06/18 04:24:42;;;;;;;8.30;5.82;;;21.80;58.60;;;;;;5092111;28;20024;-51
2021/06/18 04:27:09;;;;;;;10.48;6.03;;;21.80;56.70;;;;;;5091691;28;20048;-50
2021/06/18 04:29:37;;;;;;;7.43;6.07;;;21.80;56.90;;;;;;5091504;28;20427;-54
2021/06/18 04:32:04;;;;;;;10.35;5.82;;;21.90;58.20;;;;;;5091666;28;20024;-56
2021/06/18 04:34:32;;;;;;;8.07;6.22;;;21.90;57.90;;;;;;5091475;28;20034;-53
2021/06/18 04:36:59;;;;;;;8.50;5.70;;;22.00;57.60;;;;;;5091088;28;20058;-51
2021/06/18 04:39:27;;;;;;;8.57;5.97;;;21.90;57.30;;;;;;5091669;28;20081;-51
2021/06/18 04:41:54;;;;;;;7.18;5.38;;;22.00;58.40;;;;;;5091544;28;20020;-54
2021/06/18 04:44:22;;;;;;;8.45;5.07;;;21.90;56.30;;;;;;5095049;28;20024;-56
2021/06/18 04:46:49;;;;;;;16.38;6.05;;;21.80;56.60;;;;;;5095227;28;20055;-55
2021/06/18 04:49:17;;;;;;;7.38;5.15;;;21.80;58.70;;;;;;5095418;28;20039;-55
2021/06/18 04:51:44;;;;;;;7.65;4.97;;;21.90;58.70;;;;;;5094476;28;20020;-54
2021/06/18 04:54:12;;;;;;;15.13;5.13;;;21.90;58.50;;;;;;5095268;28;20016;-53
2021/06/18 04:56:43;;;;;;;6.80;4.35;;;21.90;57.40;;;;;;5094896;28;20093;-51
2021/06/18 04:59:10;;;;;;;10.32;5.55;;;22.00;57.40;;;;;;5094542;28;20395;-52
2021/06/18 05:01:38;;;;;;;6.97;4.13;;;22.10;58.60;;;;;;5094729;28;20064;-53
2021/06/18 05:04:05;;;;;;;5.38;3.88;;;22.10;58.00;;;;;;5090479;28;20039;-51
2021/06/18 05:06:33;;;;;;;8.55;4.80;;;22.00;55.60;;;;;;5095113;28;20401;-49
2021/06/18 05:09:00;;;;;;;8.30;4.55;;;21.80;55.20;;;;;;5094460;28;20063;-52
2021/06/18 05:11:27;;;;;;;7.63;4.68;;;21.60;57.70;;;;;;5094779;28;20055;-50
2021/06/18 05:13:55;;;;;;;6.25;4.30;;;21.30;56.20;;;;;;5094456;28;20035;-50
2021/06/18 05:16:22;;;;;;;10.85;4.03;;;21.10;59.80;;;;;;5094963;28;20022;-52
2021/06/18 05:18:49;;;;;;;7.18;4.00;;;20.80;57.50;;;;;;5094758;28;20103;-51
2021/06/18 05:21:17;;;;;;;6.53;4.50;;;20.70;58.70;;;;;;5094504;28;20079;-54
2021/06/18 05:23:45;;;;;;;6.35;4.10;;;20.50;59.30;;;;;;5094351;28;20028;-55
2021/06/18 05:26:13;;;;;;;4.15;3.55;;;20.30;59.00;;;;;;5094103;28;20078;-53
2021/06/18 05:28:40;;;;;;;6.80;4.07;;;20.20;61.90;;;;;;5094514;28;20028;-54
2021/06/18 05:31:07;;;;;;;8.50;4.30;;;20.10;61.50;;;;;;5094123;28;20056;-51
2021/06/18 05:33:35;;;;;;;8.00;3.35;;;19.90;62.00;;;;;;5094568;28;20028;-55
2021/06/18 05:36:02;;;;;;;6.47;4.38;;;19.80;60.50;;;;;;5094023;28;20505;-54
2021/06/18 05:38:30;;;;;;;6.55;3.55;;;19.60;64.10;;;;;;5094214;28;20028;-51
2021/06/18 05:40:57;;;;;;;8.73;4.15;;;19.60;60.60;;;;;;5093901;28;20035;-56
2021/06/18 05:43:25;;;;;;;8.38;3.58;;;19.40;63.10;;;;;;5093987;28;20213;-55
2021/06/18 05:45:52;;;;;;;5.95;3.80;;;19.30;62.10;;;;;;5094096;28;20107;-52
2021/06/18 05:48:20;;;;;;;5.95;3.22;;;19.20;64.40;;;;;;5094126;28;20028;-51
2021/06/18 05:50:48;;;;;;;8.48;3.63;;;19.10;64.40;;;;;;5093090;28;20024;-50
2021/06/18 05:53:15;;;;;;;6.05;3.20;;;19.00;65.40;;;;;;5093650;28;20442;-46
2021/06/18 05:55:44;;;;;;;5.20;3.70;;;18.90;65.60;;;;;;5092411;28;20081;-52
2021/06/18 05:58:12;;;;;;;7.50;3.80;;;18.80;63.70;;;;;;5094174;28;20020;-50
2021/06/18 06:00:40;;;;;;;4.47;3.28;;;18.70;66.90;;;;;;5093696;28;20103;-53
2021/06/18 06:03:08;;;;;;;7.10;3.38;;;18.70;65.70;;;;;;5093666;28;20020;-54
2021/06/18 06:05:36;;;;;;;6.35;3.60;;;18.70;65.00;;;;;;5092269;28;20356;-55
2021/06/18 06:08:04;;;;;;;9.20;3.25;;;18.50;68.40;;;;;;5093838;28;20035;-55
2021/06/18 06:10:31;;;;;;;4.60;2.80;;;18.50;68.00;;;;;;5093628;28;20047;-57
2021/06/18 06:13:02;;;;;;;4.65;3.42;;;18.40;65.70;;;;;;5093594;28;20028;-52
2021/06/18 06:15:29;;;;;;;3.65;2.75;;;18.40;67.40;;;;;;5094029;28;20024;-53
2021/06/18 06:17:56;;;;;;;4.53;3.20;;;18.30;67.70;;;;;;5093635;28;20140;-52
2021/06/18 06:20:24;;;;;;;3.75;3.33;;;18.30;67.60;;;;;;5093703;28;20099;-54
2021/06/18 06:22:51;;;;;;;5.65;2.75;;;18.30;69.20;;;;;;5093429;28;20020;-49
2021/06/18 06:25:18;;;;;;;7.10;3.53;;;18.20;68.90;;;;;;5093620;28;20551;-55
2021/06/18 06:27:46;;;;;;;4.28;2.97;;;18.20;69.40;;;;;;5093499;28;20048;-56
2021/06/18 06:30:13;;;;;;;5.15;3.13;;;18.10;67.90;;;;;;5093443;28;20024;-55
2021/06/18 06:32:41;;;;;;;5.22;3.22;;;18.10;67.80;;;;;;5093387;28;20123;-53
2021/06/18 06:35:12;;;;;;;3.70;2.47;;;18.10;68.30;;;;;;5092845;28;20028;-53
2021/06/18 06:37:41;;;;;;;4.30;3.08;;;18.00;69.30;;;;;;5092886;28;20026;-54
2021/06/18 06:40:11;;;;;;;4.75;2.50;;;18.00;69.80;;;;;;5093162;28;20451;-52
2021/06/18 06:42:38;;;;;;;5.10;3.53;;;18.00;68.80;;;;;;5093228;28;20157;-50
2021/06/18 06:45:07;;;;;;;3.30;2.65;;;18.00;69.60;;;;;;5093014;28;20032;-47
2021/06/18 06:47:34;;;;;;;4.78;3.08;;;17.90;69.00;;;;;;5091457;28;20020;-53
2021/06/18 06:50:02;;;;;;;4.75;2.67;;;17.90;69.70;;;;;;5093070;28;20442;-56
2021/06/18 06:52:29;;;;;;;3.70;2.42;;;17.80;69.50;;;;;;5092966;28;20375;-54
2021/06/18 06:54:56;;;;;;;4.25;2.80;;;17.80;71.10;;;;;;5092697;28;20038;-53
2021/06/18 06:57:25;;;;;;;6.13;2.92;;;17.80;70.60;;;;;;5092595;28;20028;-51
2021/06/18 06:59:52;;;;;;;7.10;3.05;;;17.70;70.70;;;;;;5092693;28;20052;-53
2021/06/18 07:02:20;;;;;;;4.15;2.83;;;17.70;71.80;;;;;;5091811;28;20378;-56
2021/06/18 07:04:47;;;;;;;8.25;2.67;;;17.70;71.50;;;;;;5090862;28;20135;-52
2021/06/18 07:07:16;;;;;;;3.60;2.45;;;17.70;68.90;;;;;;5092226;28;20031;-53
2021/06/18 07:09:43;;;;;;;5.22;3.00;;;17.70;70.60;;;;;;5092531;28;20028;-61
2021/06/18 07:12:11;;;;;;;5.57;2.53;;;17.60;69.90;;;;;;5092371;28;20036;-51
2021/06/18 07:14:42;;;;;;;5.88;2.58;;;17.60;71.10;;;;;;5092560;28;20024;-54
2021/06/18 07:17:10;;;;;;;7.30;2.55;;;17.60;71.30;;;;;;5092343;28;20024;-56
2021/06/18 07:19:38;;;;;;;3.00;2.58;;;17.60;70.50;;;;;;5091197;28;20043;-53
2021/06/18 07:22:05;;;;;;;2.95;2.00;;;17.60;70.10;;;;;;5092502;28;20062;-52
2021/06/18 07:24:33;;;;;;;6.82;2.35;;;17.60;69.40;;;;;;5093453;28;20039;-56
2021/06/18 07:27:00;;;;;;;4.13;2.38;;;17.50;71.20;;;;;;5092461;28;20117;-56
2021/06/18 07:29:28;;;;;;;4.75;2.55;;;17.50;71.50;;;;;;5093050;28;20093;-53
2021/06/18 07:31:57;;;;;;;6.50;2.50;;;17.50;70.00;;;;;;5092895;28;20108;-48
2021/06/18 07:34:24;;;;;;;13.57;3.13;;;17.50;71.40;;;;;;5092725;28;20043;-52
2021/06/18 07:36:52;;;;;;;2.53;1.75;;;17.40;70.00;;;;;;5092984;28;20020;-52
2021/06/18 07:39:19;;;;;;;4.78;2.17;;;17.40;70.70;;;;;;5093226;28;20024;-53
2021/06/18 07:41:50;;;;;;;2.65;2.17;;;17.50;70.30;;;;;;5091278;28;20426;-55
2021/06/18 07:44:17;;;;;;;3.55;1.90;;;17.50;70.40;;;;;;5091388;28;20028;-60
2021/06/18 07:46:45;;;;;;;3.50;2.30;;;17.40;70.50;;;;;;5093145;28;20028;-54
2021/06/18 07:49:12;;;;;;;4.50;2.58;;;17.40;71.40;;;;;;5092396;28;20036;-54
2021/06/18 07:51:40;;;;;;;3.63;2.10;;;17.40;70.70;;;;;;5091405;28;20027;-56
2021/06/18 07:54:07;;;;;;;9.13;2.28;;;17.40;68.70;;;;;;5092942;28;20024;-56
2021/06/18 07:56:41;;;;;;;4.03;2.65;;;17.30;67.50;;;;;;5093060;28;20039;-60
2021/06/18 07:59:08;;;;;;;3.28;2.33;;;17.30;72.00;;;;;;5092235;28;20028;-55
2021/06/18 08:01:35;;;;;;;2.72;2.13;;;17.30;70.70;;;;;;5093086;28;20527;-51
2021/06/18 08:04:03;;;;;;;3.13;2.33;;;17.30;71.60;;;;;;5089428;28;20101;-54
2021/06/18 08:06:30;;;;;;;3.22;2.15;;;17.20;72.70;;;;;;5092162;28;20028;-58
2021/06/18 08:08:58;;;;;;;4.68;2.15;;;17.20;72.50;;;;;;5092427;28;20120;-57
2021/06/18 08:11:26;;;;;;;2.35;1.80;;;17.20;72.40;;;;;;5092826;28;20020;-57
2021/06/18 08:13:53;;;;;;;4.68;2.25;;;17.20;73.40;;;;;;5092161;28;20024;-56
2021/06/18 08:16:20;;;;;;;2.45;2.00;;;17.20;73.20;;;;;;5093026;28;20030;-57
2021/06/18 08:18:48;;;;;;;4.60;1.85;;;17.10;73.60;;;;;;5096389;28;20378;-58
2021/06/18 08:21:15;;;;;;;2.83;1.77;;;17.10;73.30;;;;;;5096528;28;20182;-52
2021/06/18 08:23:43;;;;;;;2.38;1.88;;;17.10;73.00;;;;;;5078522;28;20048;-53
2021/06/18 08:26:10;;;;;;;2.28;1.60;;;17.10;73.10;;;;;;5095696;28;20052;-56
2021/06/18 08:28:40;;;;;;;2.25;1.63;;;17.10;73.30;;;;;;5096667;28;20036;-53
2021/06/18 08:31:08;;;;;;;2.33;1.98;;;17.00;73.00;;;;;;5096207;28;20028;-55
2021/06/18 08:33:36;;;;;;;2.15;1.85;;;17.00;73.70;;;;;;5096267;28;20023;-55
2021/06/18 08:36:05;;;;;;;2.13;1.73;;;17.00;74.00;;;;;;5096494;28;20451;-56
2021/06/18 08:38:36;;;;;;;2.33;1.65;;;16.90;74.00;;;;;;5092454;28;20024;-52
2021/06/18 08:41:07;;;;;;;2.90;1.67;;;16.90;74.10;;;;;;5093328;28;20024;-60
2021/06/18 08:43:36;;;;;;;2.70;2.22;;;16.90;74.40;;;;;;5094523;28;20039;-54
2021/06/18 08:46:05;;;;;;;3.72;2.45;;;16.80;74.40;;;;;;5095318;28;20058;-55
2021/06/18 08:48:34;;;;;;;2.35;1.77;;;16.80;74.70;;;;;;5095119;28;20032;-56
2021/06/18 08:51:03;;;;;;;2.22;1.50;;;16.80;75.00;;;;;;5094690;28;20076;-51
2021/06/18 08:53:36;;;;;;;4.00;2.08;;;16.80;74.80;;;;;;5094484;28;20039;-51
2021/06/18 08:56:07;;;;;;;2.13;1.83;;;16.70;75.20;;;;;;5093606;28;20020;-53
2021/06/18 08:58:36;;;;;;;3.03;1.75;;;16.70;75.00;;;;;;5094987;28;20021;-54
2021/06/18 09:01:04;;;;;;;2.50;1.52;;;16.70;75.10;;;;;;5095162;28;20024;-57
2021/06/18 09:03:45;;;;;;;1.98;1.42;;;16.70;75.30;;;;;;5095229;28;20028;-60
2021/06/18 09:06:24;;;;;;;3.47;1.90;;;16.70;75.50;;;;;;5093587;28;20047;-52
2021/06/18 09:09:19;;;;;;;2.05;1.85;;;16.70;75.60;;;;;;5094589;28;20050;-46
2021/06/18 09:11:53;;;;;;;3.17;1.80;;;16.60;75.70;;;;;;5095359;28;20032;-50
2021/06/18 09:14:26;;;;;;;3.05;1.40;;;16.60;75.80;;;;;;5095069;28;20384;-48
2021/06/18 09:17:27;;;;;;;2.70;1.80;;;16.60;75.80;;;;;;5094708;28;20412;-48
2021/06/18 09:20:00;;;;;;;5.25;1.42;;;16.50;75.90;;;;;;5094988;28;20039;-47
2021/06/18 09:22:45;;;;;;;2.53;1.70;;;16.50;76.00;;;;;;5094982;28;20039;-46
2021/06/18 09:25:13;;;;;;;2.00;1.60;;;16.50;76.20;;;;;;5094596;28;20493;-47
2021/06/18 09:27:44;;;;;;;2.75;1.80;;;16.50;76.20;;;;;;5093862;28;20048;-51
2021/06/18 09:30:37;;;;;;;2.45;1.23;;;16.50;76.90;;;;;;5094404;28;20107;-52
2021/06/18 09:33:08;;;;;;;3.97;1.67;;;16.40;76.50;;;;;;5088385;28;20032;-54
2021/06/18 09:35:36;;;;;;;2.67;1.40;;;16.40;76.50;;;;;;5093142;28;20060;-58
2021/06/18 09:38:08;;;;;;;1.90;1.20;;;16.40;76.60;;;;;;5094295;28;20028;-48
2021/06/18 09:40:37;;;;;;;2.65;1.70;;;16.40;76.70;;;;;;5095098;28;20024;-51
2021/06/18 09:43:04;;;;;;;1.33;0.98;;;16.40;76.70;;;;;;5094282;28;20471;-55
2021/06/18 09:45:37;;;;;;;11.18;2.60;;;16.40;76.80;;;;;;5094384;28;20024;-53
2021/06/18 09:48:08;;;;;;;;;;;16.30;76.90;;;;;;5095081;28;20035;-54
2021/06/18 09:50:39;;;;;;;2.03;1.27;;;16.30;76.90;;;;;;5094594;28;19920;-56
2021/06/18 09:53:20;;;;;;;1.90;1.40;;;16.30;77.00;;;;;;5094427;28;20024;-56
2021/06/18 09:56:01;;;;;;;1.83;1.40;;;16.30;77.00;;;;;;5094609;28;20024;-51
2021/06/18 09:58:37;;;;;;;1.70;1.40;;;16.20;77.10;;;;;;5094092;28;20028;-53
2021/06/18 10:01:24;;;;;;;2.08;1.10;;;16.20;77.10;;;;;;5093872;28;20028;-50
2021/06/18 10:04:11;;;;;;;1.60;1.40;;;16.20;77.20;;;;;;5094052;28;20039;-58
2021/06/18 10:06:40;;;;;;;1.58;1.17;;;16.20;77.30;;;;;;5093976;28;20020;-53
2021/06/18 10:09:10;;;;;;;2.67;1.67;;;16.20;77.50;;;;;;5093509;28;20072;-56
2021/06/18 10:11:42;;;;;;;5.40;1.60;;;16.20;77.50;;;;;;5093777;28;20028;-57
2021/06/18 10:14:10;;;;;;;2.28;1.50;;;16.20;77.50;;;;;;5093818;28;20055;-56
2021/06/18 10:16:40;;;;;;;2.10;1.20;;;16.20;77.70;;;;;;5093804;28;20028;-54
2021/06/18 10:19:07;;;;;;;2.35;1.50;;;16.10;77.70;;;;;;5093682;28;20397;-54
2021/06/18 10:21:55;;;;;;;2.35;1.35;;;16.10;77.80;;;;;;5093658;28;20107;-56
2021/06/18 10:24:27;;;;;;;3.00;1.33;;;16.10;77.90;;;;;;5093858;28;20102;-53
2021/06/18 10:26:57;;;;;;;1.80;1.20;;;16.10;78.00;;;;;;5093849;28;20090;-55
2021/06/18 10:29:33;;;;;;;1.33;1.20;;;16.10;78.60;;;;;;5093664;28;20441;-53
2021/06/18 10:32:28;;;;;;;2.05;1.10;;;16.00;78.10;;;;;;5093679;28;20375;-55
2021/06/18 10:34:57;;;;;;;2.40;1.40;;;16.00;78.20;;;;;;5093494;28;20446;-56
2021/06/18 10:37:29;;;;;;;2.17;1.20;;;16.00;78.40;;;;;;5092863;28;20588;-53
2021/06/18 10:39:57;;;;;;;;;;;16.00;78.50;;;;;;5093861;28;20363;-56
2021/06/18 10:42:25;;;;;;;1.70;1.30;;;16.00;78.50;;;;;;5092876;28;20355;-57
2021/06/18 10:44:54;;;;;;;1.83;1.17;;;15.90;78.60;;;;;;5093085;28;20034;-56
2021/06/18 10:47:25;;;;;;;2.08;1.30;;;15.90;78.60;;;;;;5093326;28;20511;-51
2021/06/18 10:49:55;;;;;;;2.80;1.27;;;15.90;78.80;;;;;;5093130;28;20032;-54
2021/06/18 10:52:25;;;;;;;1.55;1.17;;;15.80;78.90;;;;;;5093186;28;20044;-53
2021/06/18 10:54:56;;;;;;;2.00;1.38;;;15.90;78.90;;;;;;5092950;28;20355;-53
2021/06/18 10:57:28;;;;;;;1.10;1.00;;;15.80;79.00;;;;;;5093119;28;20023;-50
2021/06/18 11:00:20;;;;;;;2.42;1.30;;;15.80;79.20;;;;;;5092560;28;20499;-49
2021/06/18 11:02:48;;;;;;;2.90;1.77;;;15.80;79.20;;;;;;5092284;28;20036;-57
2021/06/18 11:05:19;;;;;;;2.78;1.60;;;15.80;79.40;;;;;;5092661;28;20051;-51
2021/06/18 11:07:46;;;;;;;1.30;1.08;;;15.80;79.40;;;;;;5092040;28;20059;-51
2021/06/18 11:10:30;;;;;;;2.28;1.08;;;15.80;79.50;;;;;;5093271;28;20028;-49
2021/06/18 11:13:09;;;;;;;1.83;1.08;;;15.80;79.60;;;;;;5092255;28;20059;-53
2021/06/18 11:15:43;;;;;;;1.38;1.20;;;15.80;79.60;;;;;;5093166;28;20073;-53
2021/06/18 11:18:18;;;;;;;3.50;1.00;;;15.70;79.60;;;;;;5092757;28;20466;-50
2021/06/18 11:20:51;;;;;;;1.52;1.00;;;15.70;79.70;;;;;;5091428;28;20475;-54
2021/06/18 11:23:22;;;;;;;1.50;1.10;;;15.70;79.80;;;;;;5092884;28;20479;-51
2021/06/18 11:25:56;;;;;;;1.73;1.40;;;15.70;79.70;;;;;;5092645;28;20123;-51
2021/06/18 11:28:34;;;;;;;1.60;1.00;;;15.70;79.90;;;;;;5092304;28;20043;-53
2021/06/18 11:31:21;;;;;;;1.77;1.10;;;15.70;79.80;;;;;;5092663;28;20034;-50
2021/06/18 11:33:54;;;;;;;2.35;1.55;;;15.70;80.00;;;;;;5092608;28;20057;-53
2021/06/18 11:36:21;;;;;;;2.22;1.30;;;15.70;80.00;;;;;;5091144;28;20429;-51
2021/06/18 11:38:55;;;;;;;1.40;1.05;;;15.70;80.10;;;;;;5091374;28;20026;-55
2021/06/18 11:41:40;;;;;;;1.27;1.08;;;15.70;80.10;;;;;;5092509;28;20024;-51
2021/06/18 11:44:09;;;;;;;1.77;1.17;;;15.70;80.20;;;;;;5092361;28;20032;-57
2021/06/18 11:46:37;;;;;;;3.35;1.45;;;15.70;80.10;;;;;;5092405;28;20024;-52
2021/06/18 11:49:20;;;;;;;2.38;1.40;;;15.70;80.20;;;;;;5092021;28;20042;-47
2021/06/18 11:51:52;;;;;;;2.10;1.30;;;15.60;80.10;;;;;;5090558;28;20017;-53
2021/06/18 11:54:46;;;;;;;2.80;1.20;;;15.60;80.20;;;;;;5092817;28;20111;-53
2021/06/18 11:57:20;;;;;;;1.98;0.98;;;15.60;80.20;;;;;;5088341;28;20075;-56
2021/06/18 11:59:59;;;;;;;1.63;1.05;;;15.60;80.20;;;;;;5092292;28;20031;-51
2021/06/18 12:02:32;;;;;;;2.45;0.85;;;15.60;80.30;;;;;;5092455;28;20027;-52
2021/06/18 12:05:09;;;;;;;1.40;0.90;;;15.60;80.30;;;;;;5092619;28;20028;-55
2021/06/18 12:07:37;;;;;;;1.40;1.20;;;15.60;80.40;;;;;;5092785;28;20107;-56
2021/06/18 12:10:07;;;;;;;2.08;1.10;;;15.60;80.40;;;;;;5092219;28;20024;-56
2021/06/18 12:12:48;;;;;;;2.70;1.20;;;15.60;80.50;;;;;;5091948;28;20024;-52
2021/06/18 12:15:23;;;;;;;1.73;1.35;;;15.60;80.50;;;;;;5092390;28;20054;-54
2021/06/18 12:17:59;;;;;;;1.50;1.05;;;15.60;80.50;;;;;;5092501;28;20372;-59
2021/06/18 12:20:33;;;;;;;2.05;1.20;;;15.60;80.60;;;;;;5092136;28;20127;-55
2021/06/18 12:23:01;;;;;;;2.17;0.98;;;15.60;80.60;;;;;;5091859;28;20031;-57
2021/06/18 12:25:29;;;;;;;3.20;1.30;;;15.60;80.60;;;;;;5092034;28;20028;-53
2021/06/18 12:27:59;;;;;;;1.50;1.20;;;15.60;80.60;;;;;;5092114;28;20039;-51
2021/06/18 12:30:32;;;;;;;1.27;1.13;;;15.60;80.60;;;;;;5092165;28;20121;-55
2021/06/18 12:33:01;;;;;;;1.40;0.90;;;15.50;80.60;;;;;;5092121;28;20024;-53
2021/06/18 12:35:41;;;;;;;3.58;1.00;;;15.50;80.70;;;;;;5092480;28;20040;-52
2021/06/18 12:38:11;;;;;;;1.55;1.20;;;15.60;80.60;;;;;;5092358;28;20109;-52
2021/06/18 12:40:40;;;;;;;1.63;1.08;;;15.50;80.60;;;;;;5092080;28;20046;-50
2021/06/18 12:43:10;;;;;;;1.42;1.00;;;15.60;80.60;;;;;;5091627;28;20101;-56
2021/06/18 12:45:49;;;;;;;1.83;1.20;;;15.50;80.70;;;;;;5091961;28;20024;-51
2021/06/18 12:48:27;;;;;;;1.33;1.02;;;15.60;80.70;;;;;;5091888;28;20335;-55
2021/06/18 12:50:59;;;;;;;0.80;0.80;;;15.60;80.80;;;;;;5091953;28;20020;-54
2021/06/18 12:53:44;;;;;;;;;;;15.50;80.70;;;;;;5092446;28;20031;-52
2021/06/18 12:56:14;;;;;;;2.08;1.25;;;15.50;80.70;;;;;;5091923;28;19911;-50
2021/06/18 12:58:43;;;;;;;1.75;1.20;;;15.50;80.80;;;;;;5091793;28;20038;-55
2021/06/18 13:01:15;;;;;;;2.15;1.23;;;15.50;80.80;;;;;;5091569;28;20356;-53
2021/06/18 13:03:42;;;;;;;1.40;1.10;;;15.50;80.70;;;;;;5091731;28;20039;-52